Highworth, United Kingdom
Current Conditions -  °F | °C
As of 4:28 AM on Monday 20 Oct 2014 (Local Time) from EGVA Reporting Station
Broken Clouds Broken Clouds  
Wind Chill: 12°   Ceiling: 1600
Heat Index: 12°   Visibility: 6mi
Dew Point: 11°   Wind: 14mph
Humidity: 94%   Direction: 250°WSW
Pressure: 29.99"   Gusts: NA
Location:  51.63°N, 1.71°W
Report Text: EGVA 200328Z AUTO 25012KT 9999 BKN016 12/11 A2999 RMK AO2 DZE0256 CIG 016V022 BKN V SCT
Loading
Personal Weather Stations






























Interactive Weather Map
Tropical Storm Tracking
New forecast layout! Learn more

10-Day Weather Forecast

Advertisements
Track Severe Weather on mobile